Time;durP1;ratioP1;P1;durP2;ratioP2;P2;SDS_P1;SDS_P2;PMS_P1;PMS_P2;Temp;Humidity;BMP_temperature;BMP_pressure;BME280_temperature;BME280_humidity;BME280_pressure;Samples;Min_cycle;Max_cycle;Signal;HPM_P1;HPM_P2
2021/04/28 00:01:41;;;;;;;6.93;2.25;;;;;;;23.54;36.85;99271.09;4483774;32;34147;-60
2021/04/28 00:04:08;;;;;;;8.88;2.58;;;;;;;23.55;36.81;99266.47;4484109;32;33778;-60
2021/04/28 00:06:35;;;;;;;8.77;2.35;;;;;;;23.54;36.78;99264.84;4484021;32;33967;-60
2021/04/28 00:09:05;;;;;;;9.27;2.58;;;;;;;23.54;36.80;99265.66;4484231;32;34036;-59
2021/04/28 00:11:33;;;;;;;8.52;2.35;;;;;;;23.54;36.79;99257.50;4483998;32;34140;-59
2021/04/28 00:14:17;;;;;;;11.27;2.45;;;;;;;23.53;36.81;99250.41;4483977;32;34656;-60
2021/04/28 00:16:44;;;;;;;5.75;2.37;;;;;;;23.53;36.90;99250.41;4483893;32;34867;-60
2021/04/28 00:19:11;;;;;;;8.77;2.33;;;;;;;23.52;36.84;99256.91;4478425;32;35037;-54
2021/04/28 00:21:38;;;;;;;7.15;2.50;;;;;;;23.52;36.89;99248.75;4479426;31;34071;-60
2021/04/28 00:24:06;;;;;;;7.90;2.22;;;;;;;23.52;36.82;99245.19;4483557;32;33536;-60
2021/04/28 00:26:33;;;;;;;12.88;2.60;;;;;;;23.53;36.77;99244.13;4483952;32;34756;-59
2021/04/28 00:29:03;;;;;;;8.82;2.58;;;;;;;23.52;36.81;99232.41;4468269;32;33410;-59
2021/04/28 00:31:30;;;;;;;8.10;1.98;;;;;;;23.51;36.90;99236.22;4467996;32;34235;-59
2021/04/28 00:33:58;;;;;;;7.18;2.58;;;;;;;23.52;36.86;99237.84;4468108;32;33836;-60
2021/04/28 00:36:25;;;;;;;9.07;2.55;;;;;;;23.50;36.97;99240.00;4468029;32;34025;-61
2021/04/28 00:38:52;;;;;;;5.60;2.12;;;;;;;23.50;36.94;99244.59;4471545;32;34543;-59
2021/04/28 00:41:19;;;;;;;4.57;1.80;;;;;;;23.49;36.92;99238.31;4483765;31;33379;-59
2021/04/28 00:43:46;;;;;;;5.53;2.20;;;;;;;23.49;36.94;99232.88;4483680;32;33890;-60
2021/04/28 00:46:14;;;;;;;8.13;2.20;;;;;;;23.50;36.92;99236.44;4476014;31;35608;-57
2021/04/28 00:48:41;;;;;;;9.15;2.35;;;;;;;23.48;36.89;99241.31;4482704;32;33845;-52
2021/04/28 00:51:08;;;;;;;7.12;2.10;;;;;;;23.48;36.85;99242.12;4483289;32;33326;-56
2021/04/28 00:53:36;;;;;;;11.40;1.92;;;;;;;23.47;36.94;99237.75;4483440;32;34681;-55
2021/04/28 00:56:03;;;;;;;8.02;2.10;;;;;;;23.48;37.00;99244.84;4483580;32;34570;-55
2021/04/28 00:58:30;;;;;;;9.00;2.87;;;;;;;23.47;37.09;99248.66;4482754;32;33997;-53
2021/04/28 01:00:58;;;;;;;8.68;2.30;;;;;;;23.47;37.07;99248.66;4481658;31;33220;-59
2021/04/28 01:03:27;;;;;;;9.13;2.80;;;;;;;23.46;37.09;99257.88;4483594;32;33745;-58
2021/04/28 01:05:59;;;;;;;8.68;2.35;;;;;;;23.46;37.04;99260.59;4483423;32;33821;-60
2021/04/28 01:08:28;;;;;;;5.85;2.30;;;;;;;23.46;37.04;99262.50;4467956;32;33879;-60
2021/04/28 01:10:56;;;;;;;5.57;2.08;;;;;;;23.46;37.04;99265.22;4467636;32;33284;-58
2021/04/28 01:13:25;;;;;;;5.22;1.95;;;;;;;23.45;37.08;99269.81;4474487;32;33908;-61
2021/04/28 01:15:54;;;;;;;6.40;2.40;;;;;;;23.46;37.07;99267.97;4483300;32;33942;-55
2021/04/28 01:18:23;;;;;;;7.78;2.37;;;;;;;23.45;36.96;99269.81;4483513;32;34853;-60
2021/04/28 01:20:51;;;;;;;11.32;2.28;;;;;;;23.45;37.17;99264.38;4483039;32;34184;-60
2021/04/28 01:23:21;;;;;;;8.85;2.40;;;;;;;23.44;37.23;99262.72;4483187;32;33888;-60
2021/04/28 01:25:50;;;;;;;7.93;2.03;;;;;;;23.44;37.17;99262.72;4483461;32;33778;-59
2021/04/28 01:28:23;;;;;;;14.82;2.50;;;;;;;23.45;37.11;99269.81;4483231;32;33782;-58
2021/04/28 01:30:54;;;;;;;7.62;2.22;;;;;;;23.44;37.14;99262.72;4482731;32;33609;-60
2021/04/28 01:33:27;;;;;;;5.78;1.98;;;;;;;23.43;37.11;99267.34;4483102;32;34954;-60
2021/04/28 01:35:56;;;;;;;12.70;2.20;;;;;;;23.42;37.10;99256.72;4482922;32;33931;-56
2021/04/28 01:38:28;;;;;;;8.23;1.97;;;;;;;23.42;37.06;99253.97;4483362;32;34018;-58
2021/04/28 01:40:57;;;;;;;7.68;2.75;;;;;;;23.42;37.06;99253.97;4481904;32;34360;-58
2021/04/28 01:43:25;;;;;;;6.18;2.10;;;;;;;23.41;37.06;99252.34;4481476;32;34992;-59
2021/04/28 01:45:54;;;;;;;6.87;2.03;;;;;;;23.41;37.10;99249.62;4481801;32;33837;-59
2021/04/28 01:48:23;;;;;;;6.57;2.15;;;;;;;23.40;37.08;99253.37;4482566;32;33819;-60
2021/04/28 01:50:52;;;;;;;6.12;2.28;;;;;;;23.40;37.11;99256.94;4482972;32;33457;-57
2021/04/28 01:53:22;;;;;;;5.10;2.20;;;;;;;23.40;37.17;99254.19;4481436;32;33803;-59
2021/04/28 01:55:53;;;;;;;13.07;2.22;;;;;;;23.38;37.18;99250.91;4481435;32;33547;-59
2021/04/28 01:58:26;;;;;;;8.18;2.15;;;;;;;23.38;37.25;99245.47;4482958;32;33977;-56
2021/04/28 02:00:55;;;;;;;8.48;2.40;;;;;;;23.39;37.29;99254.44;4468839;32;33336;-60
2021/04/28 02:03:31;;;;;;;6.93;2.00;;;;;;;23.39;37.37;99246.28;4481504;32;34698;-60
2021/04/28 02:06:05;;;;;;;6.10;2.15;;;;;;;23.39;37.30;99249.84;4468843;32;33898;-60
2021/04/28 02:08:34;;;;;;;6.55;1.95;;;;;;;23.39;37.29;99251.72;4468931;32;34443;-59
2021/04/28 02:11:03;;;;;;;9.40;2.45;;;;;;;23.40;37.25;99253.37;4484674;32;34709;-60
2021/04/28 02:13:40;;;;;;;5.18;2.15;;;;;;;23.38;37.25;99253.63;4485091;32;33545;-59
2021/04/28 02:16:10;;;;;;;8.68;1.80;;;;;;;23.40;37.48;99242.50;4485149;32;33837;-60
2021/04/28 02:18:39;;;;;;;6.25;2.00;;;;;;;23.38;37.41;99244.63;4483366;32;34883;-60
2021/04/28 02:21:14;;;;;;;6.65;2.28;;;;;;;23.38;37.42;99240.00;4483729;32;33384;-59
2021/04/28 02:23:46;;;;;;;3.92;1.65;;;;;;;23.39;37.36;99246.28;4483570;32;33707;-60
2021/04/28 02:26:14;;;;;;;6.10;2.03;;;;;;;23.38;37.39;99247.34;4483741;32;33836;-60
2021/04/28 02:28:43;;;;;;;7.35;1.95;;;;;;;23.37;37.44;99240.25;4485055;32;33552;-59
2021/04/28 02:31:12;;;;;;;5.18;2.03;;;;;;;23.38;37.40;99237.28;4484840;32;34101;-60
2021/04/28 02:33:40;;;;;;;8.30;2.20;;;;;;;23.37;37.34;99235.66;4484986;32;34724;-59
2021/04/28 02:36:15;;;;;;;9.40;2.47;;;;;;;23.36;37.29;99238.59;4483487;32;32435;-60
2021/04/28 02:38:53;;;;;;;5.57;1.97;;;;;;;23.36;37.31;99236.72;4484664;32;34944;-60
2021/04/28 02:41:23;;;;;;;6.07;1.90;;;;;;;23.36;37.33;99239.44;4483774;31;33503;-59
2021/04/28 02:43:52;;;;;;;6.47;1.73;;;;;;;23.35;37.32;99235.03;4484895;32;33854;-59
2021/04/28 02:46:20;;;;;;;4.47;1.83;;;;;;;23.35;37.34;99239.66;4483788;32;33944;-60
2021/04/28 02:48:49;;;;;;;6.03;1.83;;;;;;;23.34;37.47;99238.84;4484910;32;33834;-60
2021/04/28 02:51:22;;;;;;;7.37;1.87;;;;;;;23.35;37.49;99248.66;4483543;32;31871;-60
2021/04/28 02:53:50;;;;;;;5.75;2.25;;;;;;;23.34;37.58;99238.00;4483342;32;33715;-59
2021/04/28 02:56:18;;;;;;;6.80;1.77;;;;;;;23.34;37.49;99240.72;4470281;32;33925;-55
2021/04/28 02:58:45;;;;;;;6.40;2.28;;;;;;;23.33;37.42;99237.19;4483544;32;33823;-57
2021/04/28 03:01:13;;;;;;;7.47;2.00;;;;;;;23.33;37.50;99241.81;4483621;32;33933;-60
2021/04/28 03:03:41;;;;;;;5.47;2.08;;;;;;;23.33;37.49;99244.53;4483299;32;34708;-61
2021/04/28 03:06:10;;;;;;;8.43;2.30;;;;;;;23.33;37.49;99239.91;4484668;32;34687;-59
2021/04/28 03:08:39;;;;;;;4.93;1.92;;;;;;;23.34;37.52;99249.72;4470362;32;33747;-60
2021/04/28 03:11:06;;;;;;;7.28;2.00;;;;;;;23.33;37.48;99248.06;4483680;32;33929;-55
2021/04/28 03:13:34;;;;;;;4.62;1.85;;;;;;;23.33;37.54;99241.81;4462632;32;34461;-54
2021/04/28 03:16:01;;;;;;;6.60;2.20;;;;;;;23.33;37.45;99241.81;4482535;32;33572;-57
2021/04/28 03:18:28;;;;;;;8.02;1.75;;;;;;;23.33;37.46;99242.62;4484287;32;34403;-59
2021/04/28 03:20:55;;;;;;;4.60;1.87;;;;;;;23.33;37.55;99239.91;4483987;32;33104;-60
2021/04/28 03:23:25;;;;;;;13.27;2.67;;;;;;;23.33;37.53;99244.53;4483178;32;33556;-60
2021/04/28 03:25:53;;;;;;;6.32;1.90;;;;;;;23.33;37.54;99244.53;4484623;32;33787;-60
2021/04/28 03:28:20;;;;;;;7.53;2.20;;;;;;;23.34;37.46;99251.63;4484301;32;34089;-60
2021/04/28 03:30:47;;;;;;;6.55;2.03;;;;;;;23.32;37.50;99246.44;4484570;32;33716;-60
2021/04/28 03:33:15;;;;;;;6.00;2.00;;;;;;;23.32;37.47;99240.97;4484156;32;33806;-60
2021/04/28 03:35:43;;;;;;;6.75;1.95;;;;;;;23.33;37.48;99242.62;4484443;32;35248;-59
2021/04/28 03:38:11;;;;;;;4.65;1.80;;;;;;;23.33;37.46;99239.09;4484603;32;34887;-60
2021/04/28 03:40:39;;;;;;;4.55;1.80;;;;;;;23.31;37.46;99244.75;4484340;32;33427;-60
2021/04/28 03:43:07;;;;;;;11.02;1.80;;;;;;;23.32;37.47;99240.16;4484489;32;33785;-60
2021/04/28 03:45:34;;;;;;;5.78;2.03;;;;;;;23.32;37.43;99240.16;4484245;32;33890;-57
2021/04/28 03:48:02;;;;;;;7.85;2.10;;;;;;;23.30;37.48;99237.66;4484116;32;33552;-58
2021/04/28 03:50:31;;;;;;;4.82;2.12;;;;;;;23.31;37.49;99233.03;4483850;32;33465;-53
2021/04/28 03:53:07;;;;;;;5.07;1.77;;;;;;;23.30;37.54;99242.28;4475367;32;33787;-54
2021/04/28 03:55:35;;;;;;;5.65;1.77;;;;;;;23.29;37.57;99246.91;4484144;32;36359;-56
2021/04/28 03:58:02;;;;;;;3.62;1.58;;;;;;;23.29;37.57;99251.50;4484202;32;33846;-57
2021/04/28 04:00:30;;;;;;;6.12;1.70;;;;;;;23.28;37.51;99249.88;4471863;32;33215;-55
2021/04/28 04:02:58;;;;;;;8.30;1.80;;;;;;;23.29;37.45;99251.50;4468427;32;33871;-55
2021/04/28 04:05:29;;;;;;;6.85;1.90;;;;;;;23.28;37.51;99250.69;4468744;32;32640;-57
2021/04/28 04:07:59;;;;;;;;;;;;;;;23.28;37.47;99252.59;4469070;32;33765;-55
2021/04/28 04:10:27;;;;;;;3.17;1.60;;;;;;;23.37;37.31;99259.31;4468781;32;34185;-54
2021/04/28 04:12:55;;;;;;;4.25;1.58;;;;;;;23.28;37.49;99261.56;4482236;32;33946;-55
2021/04/28 04:15:23;;;;;;;6.03;1.85;;;;;;;23.26;37.64;99252.81;4484065;32;33891;-56
2021/04/28 04:17:51;;;;;;;6.60;2.17;;;;;;;23.26;37.56;99262.88;4482919;32;33683;-57
2021/04/28 04:20:18;;;;;;;4.90;1.87;;;;;;;23.24;37.54;99252.22;4477693;32;33275;-56
2021/04/28 04:22:46;;;;;;;7.95;1.98;;;;;;;23.25;37.61;99266.66;4482376;32;34553;-54
2021/04/28 04:25:17;;;;;;;3.92;1.80;;;;;;;23.24;37.65;99265.84;4483879;32;33904;-53
2021/04/28 04:27:45;;;;;;;4.50;1.60;;;;;;;23.24;37.60;99265.84;4476449;32;33872;-52
2021/04/28 04:30:13;;;;;;;4.80;2.00;;;;;;;23.24;37.67;99262.28;4468394;32;33079;-55
2021/04/28 04:32:45;;;;;;;4.18;1.67;;;;;;;23.23;37.65;99264.19;4467106;32;31941;-57
2021/04/28 04:35:13;;;;;;;5.35;1.65;;;;;;;23.24;37.67;99265.00;4468263;32;33781;-56
2021/04/28 04:37:45;;;;;;;6.47;1.67;;;;;;;23.23;37.64;99269.63;4468147;32;32437;-53
2021/04/28 04:40:15;;;;;;;5.87;1.80;;;;;;;23.23;37.61;99269.63;4477354;32;34131;-57
2021/04/28 04:42:43;;;;;;;4.00;1.65;;;;;;;23.23;37.59;99277.78;4483550;32;33786;-54
2021/04/28 04:45:11;;;;;;;6.82;1.80;;;;;;;23.23;37.72;99269.63;4483839;32;33783;-57
2021/04/28 04:47:38;;;;;;;5.47;1.52;;;;;;;23.23;37.67;99276.97;4483582;32;33898;-57
2021/04/28 04:50:06;;;;;;;4.68;1.80;;;;;;;23.22;37.76;99272.56;4483580;32;34317;-55
2021/04/28 04:52:33;;;;;;;5.85;1.70;;;;;;;23.22;37.67;99276.13;4483447;32;34646;-56
2021/04/28 04:55:00;;;;;;;5.30;1.90;;;;;;;23.22;37.67;99275.28;4483785;32;33836;-54
2021/04/28 04:57:34;;;;;;;5.75;1.90;;;;;;;23.22;37.66;99273.41;4483675;32;33963;-56
2021/04/28 05:00:04;;;;;;;4.80;1.70;;;;;;;23.22;37.63;99267.94;4483677;32;33251;-56
2021/04/28 05:02:33;;;;;;;4.30;1.70;;;;;;;23.21;37.65;99276.37;4483473;32;33689;-54
2021/04/28 05:05:00;;;;;;;2.97;1.35;;;;;;;23.21;37.72;99270.91;4483326;32;33939;-56
2021/04/28 05:07:28;;;;;;;5.15;1.70;;;;;;;23.23;37.71;99263.38;4477055;31;34148;-56
2021/04/28 05:09:55;;;;;;;4.12;1.80;;;;;;;23.22;37.86;99265.22;4474683;31;34381;-56
2021/04/28 05:12:22;;;;;;;7.37;1.73;;;;;;;23.22;37.87;99259.78;4475062;32;34433;-54
2021/04/28 05:14:49;;;;;;;5.82;1.62;;;;;;;23.23;37.82;99263.38;4483102;32;33604;-56
2021/04/28 05:17:16;;;;;;;6.10;1.70;;;;;;;23.23;37.78;99257.91;4483182;32;34497;-55
2021/04/28 05:19:44;;;;;;;5.87;2.15;;;;;;;23.22;37.76;99256.25;4471504;32;32999;-54
2021/04/28 05:22:11;;;;;;;4.62;1.80;;;;;;;23.23;37.74;99268.81;4467494;32;34410;-54
2021/04/28 05:24:46;;;;;;;8.23;2.00;;;;;;;23.23;37.77;99261.47;4467720;32;33816;-57
2021/04/28 05:27:13;;;;;;;5.87;1.80;;;;;;;23.23;37.76;99258.75;4467221;32;33852;-57
2021/04/28 05:29:40;;;;;;;7.37;1.70;;;;;;;23.22;37.80;99259.78;4467484;32;34581;-55
2021/04/28 05:32:07;;;;;;;6.95;1.52;;;;;;;23.22;37.79;99262.50;4479533;32;34601;-61
2021/04/28 05:34:36;;;;;;;16.42;3.47;;;;;;;23.24;37.76;99265.84;4481957;32;34519;-58
2021/04/28 05:37:04;;;;;;;11.88;2.20;;;;;;;23.23;37.78;99266.09;4482992;32;33850;-60
2021/04/28 05:39:32;;;;;;;15.30;3.72;;;;;;;23.24;37.71;99262.28;4482739;32;34526;-56
2021/04/28 05:41:59;;;;;;;13.60;2.55;;;;;;;23.24;37.00;99268.56;4482701;32;33822;-60
2021/04/28 05:44:27;;;;;;;11.88;3.28;;;;;;;23.25;36.59;99269.37;4484240;32;33860;-60
2021/04/28 05:46:55;;;;;;;17.60;2.37;;;;;;;23.24;36.12;99265.84;4482927;32;33712;-56
2021/04/28 05:49:22;;;;;;;9.88;2.60;;;;;;;23.22;36.19;99269.84;4484249;31;33588;-55
2021/04/28 05:51:49;;;;;;;14.87;2.45;;;;;;;23.22;36.47;99267.94;4484705;32;33755;-53
2021/04/28 05:54:16;;;;;;;11.55;2.55;;;;;;;23.21;36.59;99269.03;4485234;32;33850;-55
2021/04/28 05:56:44;;;;;;;11.07;2.70;;;;;;;23.22;36.42;99267.13;4484690;32;34645;-54
2021/04/28 05:59:15;;;;;;;7.90;2.72;;;;;;;23.20;36.44;99259.22;4483696;32;33843;-53
2021/04/28 06:01:42;;;;;;;11.75;2.70;;;;;;;23.21;36.45;99262.75;4484689;32;33816;-53
2021/04/28 06:04:09;;;;;;;8.95;2.50;;;;;;;23.20;36.52;99264.66;4484765;32;33913;-53
2021/04/28 06:06:36;;;;;;;8.05;2.40;;;;;;;23.22;36.54;99261.69;4476772;32;33882;-53
2021/04/28 06:09:04;;;;;;;10.85;2.70;;;;;;;23.23;36.61;99264.19;4469115;32;33124;-54
2021/04/28 06:11:31;;;;;;;12.85;3.08;;;;;;;23.23;36.63;99264.19;4469294;32;34560;-54
2021/04/28 06:13:58;;;;;;;7.43;2.22;;;;;;;23.24;36.71;99265.00;4467852;32;34047;-51
2021/04/28 06:16:25;;;;;;;7.18;2.60;;;;;;;23.25;36.72;99270.22;4469262;32;33631;-52
2021/04/28 06:18:53;;;;;;;12.50;2.80;;;;;;;23.24;36.79;99274.00;4469030;32;33897;-55
2021/04/28 06:21:20;;;;;;;9.30;2.70;;;;;;;23.26;36.85;99274.56;4469270;32;34520;-52
2021/04/28 06:23:47;;;;;;;6.80;2.37;;;;;;;23.24;36.91;99268.56;4474506;32;33304;-56
2021/04/28 06:26:16;;;;;;;7.90;2.12;;;;;;;23.25;36.96;99275.66;4480122;32;33795;-53
2021/04/28 06:28:43;;;;;;;8.20;2.60;;;;;;;23.25;36.93;99269.37;4484610;32;33942;-55
2021/04/28 06:31:10;;;;;;;7.03;2.58;;;;;;;23.26;36.94;99263.69;4484383;32;34787;-57
2021/04/28 06:33:51;;;;;;;;;;;;;;;23.25;37.02;99264.75;4485117;32;34769;-55
2021/04/28 06:36:28;;;;;;;8.15;2.10;;;;;;;23.37;36.83;99270.22;4484503;32;34091;-53
2021/04/28 06:38:56;;;;;;;9.35;2.53;;;;;;;23.30;36.98;99267.59;4483796;32;33176;-54
2021/04/28 06:41:23;;;;;;;6.97;2.20;;;;;;;23.26;37.15;99265.59;4479754;32;32709;-54
2021/04/28 06:43:50;;;;;;;6.87;2.05;;;;;;;23.24;37.16;99263.13;4481281;32;33567;-53
2021/04/28 06:46:18;;;;;;;10.50;2.55;;;;;;;23.26;37.09;99263.69;4484264;32;34722;-57
2021/04/28 06:48:45;;;;;;;6.95;2.45;;;;;;;23.26;37.13;99265.59;4484589;32;33388;-52
2021/04/28 06:51:12;;;;;;;9.15;2.30;;;;;;;23.26;37.07;99266.41;4484133;32;33859;-54
2021/04/28 06:53:40;;;;;;;9.85;2.78;;;;;;;23.27;37.07;99246.31;4484352;32;33701;-52
2021/04/28 06:56:07;;;;;;;8.30;2.75;;;;;;;23.25;37.14;99251.16;4483661;32;33775;-53
2021/04/28 06:58:34;;;;;;;8.75;2.30;;;;;;;23.25;37.18;99267.50;4484272;32;33196;-55
2021/04/28 07:01:01;;;;;;;9.35;2.40;;;;;;;23.25;37.19;99255.78;4484326;32;33887;-56
2021/04/28 07:03:28;;;;;;;13.55;2.85;;;;;;;23.25;37.22;99259.31;4484606;32;34047;-54
2021/04/28 07:05:56;;;;;;;10.45;2.47;;;;;;;23.26;37.20;99266.41;4484187;32;33420;-54
2021/04/28 07:08:23;;;;;;;6.57;2.42;;;;;;;23.27;37.19;99262.66;4484351;32;33390;-53
2021/04/28 07:10:50;;;;;;;11.90;2.78;;;;;;;23.29;37.20;99265.12;4484215;32;33810;-56
2021/04/28 07:13:21;;;;;;;7.35;2.78;;;;;;;23.29;37.20;99274.12;4484142;32;33683;-55
2021/04/28 07:15:49;;;;;;;10.80;2.12;;;;;;;23.28;37.27;99266.19;4484445;32;34768;-55
2021/04/28 07:18:21;;;;;;;7.47;2.40;;;;;;;23.27;37.28;99265.38;4484324;32;33292;-54
2021/04/28 07:20:48;;;;;;;6.60;2.10;;;;;;;23.28;37.29;99256.13;4484237;32;33590;-56
2021/04/28 07:23:15;;;;;;;8.57;2.75;;;;;;;23.28;37.29;99264.31;4484270;32;33689;-56
2021/04/28 07:25:42;;;;;;;7.05;2.10;;;;;;;23.28;37.24;99256.13;4484211;32;33854;-55
2021/04/28 07:28:09;;;;;;;14.87;2.58;;;;;;;23.29;37.26;99251.50;4484163;32;33400;-54
2021/04/28 07:30:37;;;;;;;7.30;2.22;;;;;;;23.30;37.28;99250.44;4484102;32;34587;-55
2021/04/28 07:33:04;;;;;;;6.75;2.40;;;;;;;23.29;37.36;99248.78;4483963;32;33861;-55
2021/04/28 07:35:31;;;;;;;7.75;2.15;;;;;;;23.29;37.42;99251.50;4484020;32;34815;-56
2021/04/28 07:37:59;;;;;;;6.85;2.65;;;;;;;23.30;37.44;99258.59;4484257;32;34133;-55
2021/04/28 07:40:31;;;;;;;7.68;3.05;;;;;;;23.31;37.38;99263.81;4484005;32;34518;-54
2021/04/28 07:43:10;;;;;;;;;;;;;;;23.31;37.50;99262.97;4476021;32;33723;-53
2021/04/28 07:45:38;;;;;;;7.15;2.37;;;;;;;23.41;37.24;99263.22;4468774;32;33955;-55
2021/04/28 07:48:08;;;;;;;9.18;2.33;;;;;;;23.32;37.50;99268.22;4468359;32;33398;-54
2021/04/28 07:50:36;;;;;;;6.87;2.28;;;;;;;23.29;37.50;99267.84;4468646;32;33794;-52
2021/04/28 07:53:03;;;;;;;8.00;1.98;;;;;;;23.30;37.51;99270.31;4468453;32;33827;-52
2021/04/28 07:55:31;;;;;;;6.40;2.55;;;;;;;23.29;37.54;99278.72;4468615;32;33697;-57
2021/04/28 07:57:58;;;;;;;10.98;2.60;;;;;;;23.27;37.59;99276.25;4468412;32;33298;-54
2021/04/28 08:00:27;;;;;;;7.25;2.12;;;;;;;23.27;37.61;99281.69;4469066;32;33455;-52
2021/04/28 08:02:55;;;;;;;6.93;2.70;;;;;;;23.26;37.50;99280.03;4493815;31;33953;-62
2021/04/28 08:05:22;;;;;;;11.55;2.37;;;;;;;23.28;37.36;99277.09;4499842;31;33748;-53
2021/04/28 08:07:49;;;;;;;22.60;3.33;;;;;;;23.27;37.33;99280.84;4486602;31;34484;-53
2021/04/28 08:10:17;;;;;;;13.77;2.83;;;;;;;23.28;37.37;99287.97;4483920;32;33521;-49
2021/04/28 08:12:45;;;;;;;18.50;3.05;;;;;;;23.28;37.39;99285.25;4481425;32;33905;-51
2021/04/28 08:15:12;;;;;;;14.60;2.97;;;;;;;23.28;37.32;99288.81;4484115;32;35332;-54
2021/04/28 08:17:40;;;;;;;10.25;2.95;;;;;;;23.28;37.30;99287.97;4482308;31;33315;-55
2021/04/28 08:20:08;;;;;;;10.88;2.83;;;;;;;23.27;37.30;99284.44;4469276;32;33712;-56
2021/04/28 08:22:35;;;;;;;21.08;3.40;;;;;;;23.27;37.52;99291.75;4484045;32;33964;-59
2021/04/28 08:25:04;;;;;;;16.15;2.75;;;;;;;23.25;37.49;99286.53;4483777;32;33968;-59
2021/04/28 08:27:31;;;;;;;10.15;3.20;;;;;;;23.25;37.43;99277.56;4483987;32;34267;-60
2021/04/28 08:29:58;;;;;;;10.80;2.87;;;;;;;23.25;37.36;99283.81;4483947;32;35403;-61
2021/04/28 08:32:26;;;;;;;13.55;3.33;;;;;;;23.25;37.30;99277.56;4478623;32;158815;-60
2021/04/28 08:34:53;;;;;;;13.77;3.58;;;;;;;23.24;37.27;99275.91;4478175;32;33885;-56
2021/04/28 08:37:20;;;;;;;11.77;3.20;;;;;;;23.24;37.26;99278.63;4468060;32;34196;-57
2021/04/28 08:39:48;;;;;;;12.43;3.05;;;;;;;23.23;37.24;99276.97;4467851;32;33444;-59
2021/04/28 08:42:16;;;;;;;10.98;2.78;;;;;;;23.22;37.22;99269.84;4470701;31;33910;-55
2021/04/28 08:44:43;;;;;;;9.02;3.25;;;;;;;23.22;37.15;99275.28;4498693;31;33783;-58
2021/04/28 08:47:12;;;;;;;9.32;2.70;;;;;;;23.21;37.12;99277.19;4499115;31;33193;-56
2021/04/28 08:49:39;;;;;;;12.50;3.05;;;;;;;23.21;37.10;99271.75;4483625;32;34732;-58
2021/04/28 08:52:06;;;;;;;10.32;2.70;;;;;;;23.22;37.11;99272.56;4483529;32;33854;-60
2021/04/28 08:54:48;;;;;;;12.00;2.58;;;;;;;23.23;37.10;99268.81;4470943;32;33778;-58
2021/04/28 08:57:15;;;;;;;15.07;2.50;;;;;;;23.24;37.14;99265.00;4483234;32;33434;-57
2021/04/28 08:59:43;;;;;;;11.55;2.45;;;;;;;23.24;37.11;99262.28;4472619;32;33661;-52
2021/04/28 09:02:26;;;;;;;10.57;2.30;;;;;;;23.24;37.15;99265.84;4482046;32;33852;-53
2021/04/28 09:05:07;;;;;;;10.20;2.53;;;;;;;23.25;37.16;99262.03;4483036;32;33700;-55
2021/04/28 09:07:37;;;;;;;14.57;2.90;;;;;;;23.26;37.21;99260.97;4483617;32;33987;-56
2021/04/28 09:10:09;;;;;;;10.25;2.37;;;;;;;23.25;37.26;99262.03;4483128;32;33891;-52
2021/04/28 09:12:37;;;;;;;10.65;2.90;;;;;;;23.26;37.19;99265.59;4483196;32;33841;-51
2021/04/28 09:15:05;;;;;;;9.50;3.30;;;;;;;23.26;37.26;99262.88;4483042;32;35530;-54
2021/04/28 09:17:52;;;;;;;14.60;3.22;;;;;;;23.25;37.28;99261.22;4483001;32;33456;-56
2021/04/28 09:20:50;;;;;;;9.48;2.75;;;;;;;23.28;37.23;99255.31;4483276;32;33884;-57
2021/04/28 09:23:28;;;;;;;12.27;2.50;;;;;;;23.28;37.33;99256.13;4480074;31;32335;-57
2021/04/28 09:26:05;;;;;;;9.52;2.47;;;;;;;23.27;37.31;99262.66;4468280;32;34461;-56
2021/04/28 09:28:52;;;;;;;8.63;2.57;;;;;;;23.26;37.29;99251.97;4469240;32;34214;-54
2021/04/28 09:31:20;;;;;;;8.45;2.83;;;;;;;23.28;37.28;99256.13;4484612;32;34457;-54
2021/04/28 09:33:48;;;;;;;8.07;2.10;;;;;;;23.27;37.31;99238.16;4477843;32;33547;-51
2021/04/28 09:36:23;;;;;;;8.70;2.40;;;;;;;23.28;37.40;99244.41;4475449;32;33753;-51
2021/04/28 09:38:54;;;;;;;8.18;2.62;;;;;;;23.29;37.40;99251.50;4479114;32;34087;-56
2021/04/28 09:41:53;;;;;;;10.35;2.42;;;;;;;23.29;37.45;99246.06;4480032;31;33821;-52
2021/04/28 09:44:22;;;;;;;8.15;2.62;;;;;;;23.32;37.50;99251.03;4481463;32;34699;-55
2021/04/28 09:46:56;;;;;;;11.20;2.83;;;;;;;23.28;37.57;99244.41;4484825;32;33631;-55
2021/04/28 09:49:26;;;;;;;7.75;2.33;;;;;;;23.27;37.60;99242.75;4484741;32;33555;-52
2021/04/28 09:51:55;;;;;;;10.00;2.78;;;;;;;23.27;37.54;99243.59;4468974;32;33732;-56
2021/04/28 09:54:28;;;;;;;8.50;3.00;;;;;;;23.27;37.59;99243.59;4468789;32;33987;-54
2021/04/28 09:56:56;;;;;;;11.20;2.42;;;;;;;23.28;37.49;99241.69;4469353;32;34880;-51
2021/04/28 09:59:42;;;;;;;12.10;2.85;;;;;;;23.25;37.36;99228.56;4468815;32;33371;-52
2021/04/28 10:02:33;;;;;;;8.85;2.92;;;;;;;23.28;37.26;99236.25;4472668;32;33765;-53
2021/04/28 10:05:20;;;;;;;9.57;2.67;;;;;;;23.26;37.25;99236.47;4484645;32;34665;-58
2021/04/28 10:07:51;;;;;;;12.52;2.80;;;;;;;23.30;37.21;99239.56;4484368;32;33948;-57
2021/04/28 10:10:19;;;;;;;7.40;2.90;;;;;;;23.26;37.26;99243.81;4484599;32;33479;-54
2021/04/28 10:12:46;;;;;;;9.95;2.40;;;;;;;23.26;37.30;99247.34;4483109;32;33518;-56
2021/04/28 10:15:13;;;;;;;11.38;2.28;;;;;;;23.27;37.27;99245.47;4476803;31;33923;-54
2021/04/28 10:17:42;;;;;;;9.95;2.58;;;;;;;23.27;37.31;99240.88;4480843;32;34406;-56
2021/04/28 10:20:09;;;;;;;9.13;2.33;;;;;;;23.28;37.36;99241.69;4470164;32;34232;-55
2021/04/28 10:22:36;;;;;;;8.63;2.40;;;;;;;23.29;37.33;99240.63;4479859;31;33924;-57
2021/04/28 10:25:07;;;;;;;9.70;2.45;;;;;;;23.28;37.35;99236.25;4478378;32;33797;-56
2021/04/28 10:27:36;;;;;;;9.77;2.10;;;;;;;23.29;37.36;99232.47;4484581;32;33480;-54
2021/04/28 10:30:04;;;;;;;11.50;2.80;;;;;;;23.29;37.38;99235.19;4468280;32;34124;-56
2021/04/28 10:32:31;;;;;;;11.70;2.97;;;;;;;23.27;37.30;99227.25;4467268;32;33553;-56
2021/04/28 10:35:07;;;;;;;9.70;2.50;;;;;;;23.27;37.37;99224.53;4468983;32;33829;-52
2021/04/28 10:37:37;;;;;;;10.48;2.80;;;;;;;23.28;37.34;99225.38;4478687;32;34466;-56
2021/04/28 10:40:15;;;;;;;9.18;2.67;;;;;;;23.28;37.30;99219.91;4483335;32;33352;-53
2021/04/28 10:42:43;;;;;;;11.63;2.53;;;;;;;23.31;37.21;99214.81;4479538;31;33637;-54
2021/04/28 10:45:22;;;;;;;11.30;2.50;;;;;;;23.31;37.25;99216.69;4469058;32;34616;-56
2021/04/28 10:47:51;;;;;;;11.20;2.80;;;;;;;23.31;37.33;99220.25;4468927;32;33308;-54
2021/04/28 10:50:39;;;;;;;10.15;2.95;;;;;;;23.28;37.37;99212.59;4468731;32;34776;-52
2021/04/28 10:53:23;;;;;;;11.75;2.78;;;;;;;23.32;37.31;99215.66;4475030;32;33698;-57
2021/04/28 10:55:51;;;;;;;9.43;2.37;;;;;;;23.31;37.36;99216.69;4483663;32;33850;-56
2021/04/28 10:58:28;;;;;;;12.63;2.90;;;;;;;23.28;37.50;99212.59;4476048;32;33880;-53
2021/04/28 11:01:04;;;;;;;8.82;2.78;;;;;;;23.30;37.51;99217.78;4475905;32;33436;-56
2021/04/28 11:03:42;;;;;;;12.25;2.92;;;;;;;23.30;37.54;99215.06;4484240;32;33734;-55
2021/04/28 11:09:06;;;;;;;10.13;2.80;;;;;;;23.32;37.57;99211.03;4484704;32;34145;-56
2021/04/28 11:11:33;;;;;;;8.90;2.65;;;;;;;23.32;37.59;99210.22;4483814;32;33330;-57
2021/04/28 11:14:23;;;;;;;10.18;3.08;;;;;;;23.32;37.68;99212.94;4481987;32;33628;-56
2021/04/28 11:17:15;;;;;;;9.00;2.30;;;;;;;23.33;37.60;99209.97;4482708;32;33863;-55
2021/04/28 11:19:43;;;;;;;8.48;2.50;;;;;;;23.33;37.70;99206.41;4484062;32;34339;-57
2021/04/28 11:22:23;;;;;;;4.75;2.10;;;;;;;23.32;37.73;99204.78;4484258;32;34088;-53
2021/04/28 11:25:09;;;;;;;14.15;2.80;;;;;;;23.32;37.77;99202.03;4484191;32;33761;-57
2021/04/28 11:27:56;;;;;;;9.05;2.45;;;;;;;23.33;37.75;99196.34;4484257;32;33929;-53
2021/04/28 11:30:32;;;;;;;9.05;3.53;;;;;;;23.33;37.64;99198.25;4488581;31;33658;-55
2021/04/28 11:33:14;;;;;;;10.30;2.85;;;;;;;23.34;37.59;99202.63;4500036;31;33322;-56
2021/04/28 11:35:43;;;;;;;10.18;2.62;;;;;;;23.32;37.59;99197.44;4485996;31;34483;-56
2021/04/28 11:38:12;;;;;;;12.85;2.78;;;;;;;23.29;37.58;99187.00;4483931;32;34152;-54
2021/04/28 11:40:49;;;;;;;15.15;3.55;;;;;;;23.30;37.33;99193.28;4484067;32;34571;-56
2021/04/28 11:43:18;;;;;;;13.10;2.70;;;;;;;23.32;37.36;99178.37;4484349;32;33085;-57
2021/04/28 11:45:45;;;;;;;10.55;2.85;;;;;;;23.30;37.43;99191.38;4484252;32;33795;-55
2021/04/28 11:48:21;;;;;;;9.93;2.97;;;;;;;23.29;37.37;99180.75;4484031;32;33956;-54